Aérodrome de Castelnaudary-Villeneuve

LFMW · Occitanie, France

October 4, 2022

Time Code Weather Temp. Visibility Ceiling Wind METAR/SPECI
10:30
V
17 °C 10 km+ - Var Var 2 kt METAR LFBO 040830Z AUTO VRB02KT CAVOK 17/13 Q1022 NOSIG
10:00
V
15 °C 10 km+ - Var Var 3 kt METAR LFBO 040800Z AUTO VRB03KT CAVOK 15/12 Q1022 NOSIG
09:30
V
13 °C 10 km+ - 180° 180° 3 kt METAR LFBO 040730Z AUTO 18003KT 160V220 CAVOK 13/12 Q1021 NOSIG
09:00
V
12 °C 10 km+ - 180° 180° 4 kt METAR LFBO 040700Z AUTO 18004KT CAVOK 12/12 Q1021 TEMPO 4000 BR
08:30
V
11 °C 10 km+ - 170° 170° 3 kt METAR LFBO 040630Z AUTO 17003KT CAVOK 11/11 Q1021 TEMPO 4000 BR
08:00
V
11 °C 10 km+ - 180° 180° 4 kt METAR LFBO 040600Z AUTO 18004KT CAVOK 11/10 Q1021 TEMPO 4000 BR
07:30
V
11 °C 10 km+ - 190° 190° 3 kt METAR LFBO 040530Z AUTO 19003KT CAVOK 11/10 Q1021 TEMPO 4000 BR
07:00
V
11 °C 10 km+ - Var Var 2 kt METAR LFBO 040500Z AUTO VRB02KT CAVOK 11/11 Q1021 NOSIG
06:30
V
11 °C 10 km+ - Var Var 2 kt METAR LFBO 040430Z AUTO VRB02KT CAVOK 11/11 Q1021 NOSIG
06:00
V
11 °C 10 km+ - 180° 180° 3 kt METAR LFBO 040400Z AUTO 18003KT CAVOK 11/11 Q1021 NOSIG
05:30
V
12 °C 10 km+ - 180° 180° 3 kt METAR LFBO 040330Z AUTO 18003KT CAVOK 12/11 Q1020 NOSIG
05:00
V
12 °C 10 km+ - 170° 170° 2 kt METAR LFBO 040300Z AUTO 17002KT CAVOK 12/11 Q1020 NOSIG
04:30
V
12 °C 10 km+ - 180° 180° 3 kt METAR LFBO 040230Z AUTO 18003KT CAVOK 12/11 Q1020 NOSIG
04:00
V
12 °C 10 km+ - 190° 190° 3 kt METAR LFBO 040200Z AUTO 19003KT CAVOK 12/11 Q1021 NOSIG
03:30
V
12 °C 10 km+ - 190° 190° 3 kt METAR LFBO 040130Z AUTO 19003KT CAVOK 12/11 Q1021 NOSIG
03:00
V
12 °C 10 km+ - 190° 190° 3 kt METAR LFBO 040100Z AUTO 19003KT CAVOK 12/11 Q1021 NOSIG
02:30
V
13 °C 10 km+ - 200° 200° 3 kt METAR LFBO 040030Z AUTO 20003KT CAVOK 13/11 Q1021 NOSIG
02:00
V
13 °C 10 km+ - 200° 200° 4 kt METAR LFBO 040000Z AUTO 20004KT CAVOK 13/12 Q1021 NOSIG
01:30
V
13 °C 10 km+ - 190° 190° 4 kt METAR LFBO 032330Z AUTO 19004KT CAVOK 13/12 Q1021 NOSIG
01:00
V
14 °C 10 km+ - 190° 190° 4 kt METAR LFBO 032300Z AUTO 19004KT CAVOK 14/12 Q1021 NOSIG
00:30
V
14 °C 10 km+ - 200° 200° 5 kt METAR LFBO 032230Z AUTO 20005KT CAVOK 14/12 Q1021 NOSIG
00:00
V
15 °C 10 km+ - 180° 180° 3 kt METAR LFBO 032200Z AUTO 18003KT CAVOK 15/12 Q1021 NOSIG

October 3, 2022

Time Code Weather Temp. Visibility Ceiling Wind METAR/SPECI
23:30
V
17 °C 10 km+ - Var Var 3 kt METAR LFBO 032130Z AUTO VRB03KT CAVOK 17/12 Q1021 NOSIG
23:00
V
17 °C 10 km+ - 320° 320° 2 kt METAR LFBO 032100Z AUTO 32002KT CAVOK 17/12 Q1021 NOSIG
22:30
V
17 °C 10 km+ - Var Var 2 kt METAR LFBO 032030Z AUTO VRB02KT CAVOK 17/12 Q1021 NOSIG
22:00
V
18 °C 10 km+ - 290° 290° 3 kt METAR LFBO 032000Z AUTO 29003KT 240V320 CAVOK 18/13 Q1021 NOSIG
21:30
V
19 °C 10 km+ - Var Var 3 kt METAR LFBO 031930Z AUTO VRB03KT CAVOK 19/12 Q1021 NOSIG
21:00
V
20 °C 10 km+ - 310° 310° 3 kt METAR LFBO 031900Z AUTO 31003KT CAVOK 20/12 Q1021 NOSIG
20:30
V
21 °C 10 km+ - 310° 310° 4 kt METAR LFBO 031830Z AUTO 31004KT 280V340 CAVOK 21/13 Q1021 NOSIG
20:00
V
21 °C 10 km+ - 290° 290° 5 kt METAR LFBO 031800Z AUTO 29005KT CAVOK 21/12 Q1021 NOSIG
19:30
V
22 °C 10 km+ - 280° 280° 4 kt METAR LFBO 031730Z AUTO 28004KT CAVOK 22/12 Q1021 NOSIG
19:00
V
23 °C 10 km+ - 300° 300° 5 kt METAR LFBO 031700Z AUTO 30005KT CAVOK 23/13 Q1021 NOSIG
18:30
V
24 °C 10 km+ - 330° 330° 5 kt METAR LFBO 031630Z AUTO 33005KT CAVOK 24/12 Q1021 NOSIG
18:00
V
24 °C 10 km+ - Var Var 5 kt METAR LFBO 031600Z AUTO VRB05KT CAVOK 24/12 Q1021 NOSIG
17:30
V
24 °C 10 km+ - Var Var 3 kt METAR LFBO 031530Z AUTO VRB03KT CAVOK 24/13 Q1021 NOSIG
17:00
V
24 °C 10 km+ - 350° 350° 5 kt METAR LFBO 031500Z AUTO 35005KT 290V040 CAVOK 24/13 Q1021 NOSIG
16:30
V
23 °C 10 km+ - 360° 360° 5 kt METAR LFBO 031430Z AUTO 36005KT 300V070 CAVOK 23/13 Q1021 NOSIG
16:00
V
24 °C 10 km+ - 020° 020° 4 kt METAR LFBO 031400Z AUTO 02004KT 290V070 CAVOK 24/13 Q1022 NOSIG
15:30
V
24 °C 10 km+ - 010° 010° 6 kt METAR LFBO 031330Z AUTO 01006KT 330V080 CAVOK 24/12 Q1022 NOSIG
15:00
V
23 °C 10 km+ - 030° 030° 3 kt METAR LFBO 031300Z AUTO 03003KT 330V110 CAVOK 23/12 Q1022 NOSIG
14:30
V
23 °C 10 km+ - 350° 350° 3 kt METAR LFBO 031230Z AUTO 35003KT 280V040 CAVOK 23/12 Q1023 NOSIG
14:00
V
22 °C 10 km+ - 340° 340° 5 kt METAR LFBO 031200Z AUTO 34005KT 290V030 CAVOK 22/12 Q1023 NOSIG
13:30
V
22 °C 10 km+ - Var Var 3 kt METAR LFBO 031130Z AUTO VRB03KT CAVOK 22/12 Q1023 NOSIG
13:00
V
22 °C 10 km+ - 090° 090° 4 kt METAR LFBO 031100Z AUTO 09004KT 050V150 CAVOK 22/12 Q1024 NOSIG
12:30
V
21 °C 10 km+ - 050° 050° 3 kt METAR LFBO 031030Z AUTO 05003KT 330V130 CAVOK 21/12 Q1024 NOSIG
12:00
V
21 °C 10 km+ - Var Var 3 kt METAR LFBO 031000Z AUTO VRB03KT CAVOK 21/13 Q1024 NOSIG
11:30
V
19 °C 10 km+ - Var Var 2 kt METAR LFBO 030930Z AUTO VRB02KT CAVOK 19/14 Q1024 NOSIG
11:00
V
18 °C 10 km+ - Var Var 2 kt METAR LFBO 030900Z AUTO VRB02KT CAVOK 18/14 Q1024 NOSIG
10:30
V
18 °C 10 km+ - Var Var 2 kt METAR LFBO 030830Z AUTO VRB02KT CAVOK 18/14 Q1024 NOSIG
10:00
V
17 °C 10 km+ - Var Var 2 kt METAR LFBO 030800Z AUTO VRB02KT CAVOK 17/14 Q1024 NOSIG
09:30
V
16 °C 10 km+ - 180° 180° 3 kt METAR LFBO 030730Z AUTO 18003KT 9999 FEW042 16/14 Q1024 NOSIG
09:00
V
15 °C 10 km+ 4,300 ft 180° 180° 2 kt METAR LFBO 030700Z AUTO 18002KT 9999 BKN043 15/14 Q1024 NOSIG
08:30
V
15 °C 10 km+ 4,300 ft 190° 190° 3 kt METAR LFBO 030630Z AUTO 19003KT 160V220 9999 OVC043 15/13 Q1024 NOSIG
08:00
V
15 °C 10 km+ 4,300 ft Var Var 1 kt METAR LFBO 030600Z AUTO VRB01KT 9999 BKN043 15/13 Q1024 NOSIG
07:30
V
15 °C 10 km+ 4,300 ft 220° 220° 2 kt METAR LFBO 030530Z AUTO 22002KT 9999 BKN043 15/13 Q1024 NOSIG
07:00
V
15 °C 10 km+ 4,300 ft 210° 210° 3 kt METAR LFBO 030500Z AUTO 21003KT 9999 OVC043 15/13 Q1024 TEMPO 3000 BR
06:30
V
15 °C 10 km+ 4,400 ft Var Var 1 kt METAR LFBO 030430Z AUTO VRB01KT 9999 OVC044 15/13 Q1024 TEMPO 3000 BR
06:00
V
15 °C 10 km+ 4,200 ft 190° 190° 2 kt METAR LFBO 030400Z AUTO 19002KT 9999 OVC042 15/13 Q1024 TEMPO 3000 BR
05:30
V
15 °C 10 km+ 4,000 ft 270° 270° 3 kt METAR LFBO 030330Z AUTO 27003KT 9999 OVC040 15/13 Q1024 TEMPO 3000 BR
05:00
V
16 °C 10 km+ 3,700 ft 350° 350° 3 kt METAR LFBO 030300Z AUTO 35003KT 310V010 9999 OVC037 16/13 Q1025 TEMPO 3000 BR
04:30
V
15 °C 10 km+ 3,800 ft 360° 360° 3 kt METAR LFBO 030230Z AUTO 36003KT 9999 BKN038 15/13 Q1024 TEMPO 3000 BR
04:00
V
15 °C 10 km+ - 320° 320° 5 kt METAR LFBO 030200Z AUTO 32005KT 9999 SCT038 15/13 Q1025 TEMPO 3000 BR
03:30
V
15 °C 10 km+ 3,900 ft 310° 310° 4 kt METAR LFBO 030130Z AUTO 31004KT 9999 BKN039 15/13 Q1025 TEMPO 3000 BR
03:00
V
14 °C 10 km+ - 310° 310° 3 kt METAR LFBO 030100Z AUTO 31003KT 9999 SCT042 14/13 Q1025 TEMPO 3000 BR
02:30
V
14 °C 10 km+ - Var 000° 0 kt METAR LFBO 030030Z AUTO 00000KT 9999 SCT042 14/13 Q1025 TEMPO 3000 BR
02:00
V
14 °C 10 km+ - 210° 210° 3 kt METAR LFBO 030000Z AUTO 21003KT 9999 FEW042 14/13 Q1025 NOSIG
01:30
V
15 °C 10 km+ - Var Var 2 kt METAR LFBO 022330Z AUTO VRB02KT CAVOK 15/13 Q1025 NOSIG
01:00
V
16 °C 10 km+ - Var 000° 0 kt METAR LFBO 022300Z AUTO 00000KT CAVOK 16/13 Q1025 NOSIG
00:30
V
17 °C 10 km+ - 320° 320° 2 kt METAR LFBO 022230Z AUTO 32002KT CAVOK 17/13 Q1025 NOSIG
00:00
V
17 °C 10 km+ - 300° 300° 2 kt METAR LFBO 022200Z AUTO 30002KT CAVOK 17/14 Q1025 NOSIG

October 2, 2022

Time Code Weather Temp. Visibility Ceiling Wind METAR/SPECI
23:30
V
17 °C 10 km+ - 310° 310° 3 kt METAR LFBO 022130Z AUTO 31003KT CAVOK 17/13 Q1025 NOSIG
23:00
V
18 °C 10 km+ - Var Var 2 kt METAR LFBO 022100Z AUTO VRB02KT CAVOK 18/14 Q1025 NOSIG
22:30
V
19 °C 10 km+ - 360° 360° 3 kt METAR LFBO 022030Z AUTO 36003KT CAVOK 19/14 Q1026 NOSIG
22:00
V
19 °C 10 km+ - 340° 340° 3 kt METAR LFBO 022000Z AUTO 34003KT 300V010 9999 FEW039 19/14 Q1026 NOSIG
21:30
V
19 °C 10 km+ - 330° 330° 4 kt METAR LFBO 021930Z AUTO 33004KT 9999 FEW040 19/14 Q1025 NOSIG
21:00
V
20 °C 10 km+ 4,100 ft 350° 350° 4 kt METAR LFBO 021900Z AUTO 35004KT 9999 BKN041 20/14 Q1025 NOSIG
20:30
V
21 °C 10 km+ - 340° 340° 5 kt METAR LFBO 021830Z AUTO 34005KT 9999 SCT040 SCT130 21/14 Q1025 NOSIG
20:00
V
22 °C 10 km+ 3,900 ft 330° 330° 6 kt METAR LFBO 021800Z AUTO 33006KT 9999 BKN039 22/14 Q1025 NOSIG
19:30
V
22 °C 10 km+ - 320° 320° 7 kt METAR LFBO 021730Z AUTO 32007KT 280V340 9999 FEW040 22/14 Q1025 NOSIG
19:00
V
22 °C 10 km+ - 310° 310° 7 kt METAR LFBO 021700Z AUTO 31007KT 280V340 CAVOK 22/14 Q1025 NOSIG
18:30
V
23 °C 10 km+ - 310° 310° 6 kt METAR LFBO 021630Z AUTO 31006KT 290V350 CAVOK 23/14 Q1025 NOSIG
18:00
V
23 °C 10 km+ - 330° 330° 6 kt METAR LFBO 021600Z AUTO 33006KT 300V020 CAVOK 23/14 Q1025 NOSIG
17:30
V
24 °C 10 km+ - 340° 340° 5 kt METAR LFBO 021530Z AUTO 34005KT 290V050 CAVOK 24/14 Q1025 NOSIG
17:00
V
24 °C 10 km+ - 320° 320° 4 kt METAR LFBO 021500Z AUTO 32004KT 230V350 CAVOK 24/14 Q1025 NOSIG
16:30
V
24 °C 10 km+ - 360° 360° 4 kt METAR LFBO 021430Z AUTO 36004KT 310V070 CAVOK 24/14 Q1025 NOSIG
16:00
V
23 °C 10 km+ - 350° 350° 6 kt METAR LFBO 021400Z AUTO 35006KT 300V060 CAVOK 23/14 Q1025 NOSIG
15:30
V
23 °C 10 km+ - 020° 020° 4 kt METAR LFBO 021330Z AUTO 02004KT 310V090 CAVOK 23/14 Q1026 NOSIG
15:00
V
22 °C 10 km+ - 030° 030° 4 kt METAR LFBO 021300Z AUTO 03004KT 350V100 9999 FEW026 22/13 Q1026 NOSIG
14:30
V
22 °C 10 km+ - 340° 340° 5 kt METAR LFBO 021230Z AUTO 34005KT 260V060 9999 FEW025 22/15 Q1026 NOSIG
14:00
M
21 °C 10 km+ 2,500 ft 360° 360° 5 kt METAR LFBO 021200Z AUTO 36005KT 310V050 9999 BKN025 BKN030 21/14 Q1027 NOSIG
13:30
M
21 °C 10 km+ 2,400 ft 360° 360° 5 kt METAR LFBO 021130Z AUTO 36005KT 300V090 9999 OVC024 21/14 Q1027 NOSIG
13:00
M
21 °C 10 km+ 2,300 ft 040° 040° 5 kt METAR LFBO 021100Z AUTO 04005KT 350V100 9999 OVC023 21/14 Q1027 NOSIG
12:30
M
20 °C 10 km+ 2,100 ft Var Var 4 kt METAR LFBO 021030Z AUTO VRB04KT 9999 FEW008 BKN021 20/14 Q1027 NOSIG
12:00
M
20 °C 10 km+ 2,000 ft 320° 320° 3 kt METAR LFBO 021000Z AUTO 32003KT 280V360 9999 BKN020 20/14 Q1027 NOSIG
11:30
M
19 °C 10 km+ 1,900 ft Var Var 3 kt METAR LFBO 020930Z AUTO VRB03KT 9999 OVC019 19/14 Q1028 NOSIG
11:00
M
17 °C 10 km+ 2,000 ft Var Var 3 kt METAR LFBO 020900Z AUTO VRB03KT 9999 OVC020 17/14 Q1028 NOSIG
Older data

We and third parties follow your internet behavior on our website with cookies. If you continue, we assume you agree with our cookie policy. Learn more